Log in Register

Login to your account

Username *
Password *
Remember Me

Create an account

Fields marked with an asterisk (*) are required.
Name *
Username *
Password *
Verify password *
Email *
Verify email *

METAR/TAF de Chambéry

[source: ADDS]
METAR
LFLB 212130Z AUTO 01008KT CAVOK 15/09 Q1016 =
TAF LFLB 211100Z 2112/2212 36010KT CAVOK TEMPO 2112/2118 FEW040TCU PROB40 TEMPO 2200/2209 BKN020
TAF
TAF LFLB 211100Z 2112/2212 36010KT CAVOK TEMPO 2112/2118 FEW040TCU PROB40 TEMPO 2200/2209 BKN020 =
SR / SS: 03:59 / 19:06 UTC (Lever/Coucher du soleil le 2019-05-21)

 

Webcam de l'Aéroclub - Parking Lima et SW (réactualisation : 5min)

Cliquer ici pour une animation sur les 3 dernières heures / Cliquer sur l'image pour l'agrandir dans une nouvelle fenêtre

 

Webcam de l'Aéroclub - Manche à air et WA (réactualisation : 5min)

Cliquer ici pour une animation sur les 3 dernières heures / Cliquer sur l'image pour l'agrandir dans une nouvelle fenêtre

 

JSN Boot template designed by JoomlaShine.com